Tina — WDC3702 — position and weather

sailwx.info

Track history (hours):
 
Tides and Currents Weather Stations Pressure Air Temp Water Temp Dewpoint Dewpoint Depression Visibility Wind Speed Wind Dir Waves Ship Positions

Tina

Owner: Wilmington Tug, Inc., New Castle, DE. More information available from US FCC via Universal Licensing System and Coast Guard Vessel Documentation Center.

Last reported at 2017-Dec-11 04:00 UTC. Time now 2017-Dec-11 04:27 UTC.
Position N 39°43' W 075°31'.

Length 20 m; draft 3.4 m.

Type: Tug. MMSI: 367012670.

Date/timePositionNaut miles runAvg speedWind from/ knotsBaromVisibWave heightAir tempDewpointWater temp
2017-Dec-11 04:00N 39°43' W 075°31'0 0.0
2017-Dec-11 03:30N 39°43' W 075°31'0 0.0
2017-Dec-11 03:00N 39°43' W 075°31'0 0.0
2017-Dec-11 02:30N 39°43' W 075°31'0 0.0
2017-Dec-11 02:00N 39°43' W 075°31'0 0.0
2017-Dec-11 01:30N 39°43' W 075°31'0 0.0
2017-Dec-11 01:00N 39°43' W 075°31'0 0.0
2017-Dec-11 00:30N 39°43' W 075°31'0 0.0
2017-Dec-11 00:00N 39°43' W 075°31'0 0.0
2017-Dec-10 23:30N 39°43' W 075°31'0 0.0
2017-Dec-10 23:00N 39°43' W 075°31'0 0.0
2017-Dec-10 22:30N 39°43' W 075°31'0 0.0
2017-Dec-10 22:00N 39°43' W 075°31'0 0.0
2017-Dec-10 21:30N 39°43' W 075°31'0 0.0
2017-Dec-10 21:00N 39°43' W 075°31'0 0.0
2017-Dec-10 20:30N 39°43' W 075°31'0 0.0
2017-Dec-10 20:00N 39°43' W 075°31'0 0.0
2017-Dec-10 19:30N 39°43' W 075°31'0 0.0
2017-Dec-10 19:00N 39°43' W 075°31'0 0.0
2017-Dec-10 18:30N 39°43' W 075°31'0 0.0
2017-Dec-10 18:00N 39°43' W 075°31'0 0.0
2017-Dec-10 17:30N 39°43' W 075°31'0 0.0
2017-Dec-10 17:00N 39°43' W 075°31'0 0.0
2017-Dec-10 16:31N 39°43' W 075°31'0 0.0
2017-Dec-10 16:00N 39°43' W 075°31'0 0.0
2017-Dec-10 15:30N 39°43' W 075°31'0 0.0
2017-Dec-10 15:00N 39°43' W 075°31'0 0.0
2017-Dec-10 14:30N 39°43' W 075°31'0 0.0
2017-Dec-10 14:00N 39°43' W 075°31'0 0.0
2017-Dec-10 13:30N 39°43' W 075°31'0 0.0
2017-Dec-10 13:00N 39°43' W 075°31'0 0.0
2017-Dec-10 12:30N 39°43' W 075°31'0 0.0
2017-Dec-10 12:00N 39°43' W 075°31'0 0.0
2017-Dec-10 11:30N 39°43' W 075°31'0 0.0
2017-Dec-10 11:00N 39°43' W 075°31'0 0.0
2017-Dec-10 10:30N 39°43' W 075°31'0 0.0
2017-Dec-10 10:00N 39°43' W 075°31'0 0.0
2017-Dec-10 09:30N 39°43' W 075°31'0 0.0
2017-Dec-10 09:00N 39°43' W 075°31'0 0.0
2017-Dec-10 08:30N 39°43' W 075°31'0 0.0
2017-Dec-10 08:00N 39°43' W 075°31'0 0.0
2017-Dec-10 07:30N 39°43' W 075°31'0 0.0
2017-Dec-10 07:00N 39°43' W 075°31'0 0.0
2017-Dec-10 06:30N 39°43' W 075°31'0 0.0
2017-Dec-10 06:00N 39°43' W 075°31'0 0.0
2017-Dec-10 05:30N 39°43' W 075°31'0 0.0
2017-Dec-10 05:00N 39°43' W 075°31'0 0.0
2017-Dec-10 04:30N 39°43' W 075°31'0 0.0
2017-Dec-10 04:00N 39°43' W 075°31'0 0.0
2017-Dec-10 03:30N 39°43' W 075°31'0 0.0
2017-Dec-10 03:00N 39°43' W 075°31'0 0.0
2017-Dec-10 02:30N 39°43' W 075°31'0 0.0
2017-Dec-10 02:00N 39°43' W 075°31'0 0.0
2017-Dec-10 01:30N 39°43' W 075°31'0 0.0
2017-Dec-10 01:00N 39°43' W 075°31'0 0.0
2017-Dec-10 00:30N 39°43' W 075°31'0 0.0
2017-Dec-10 00:00N 39°43' W 075°31'0 0.0
2017-Dec-09 23:30N 39°43' W 075°31'0 0.0
2017-Dec-09 23:00N 39°43' W 075°31'0 0.0
2017-Dec-09 22:30N 39°43' W 075°31'0 0.0
2017-Dec-09 22:00N 39°43' W 075°31'0 0.0
2017-Dec-09 21:31N 39°43' W 075°31'4 8.9
2017-Dec-09 21:01N 39°39' W 075°34'4 8.7
2017-Dec-09 20:31N 39°35' W 075°35'3 6.0
2017-Dec-09 20:00N 39°33' W 075°32'1 1.4
2017-Dec-09 19:30N 39°34' W 075°31'0 0.1
2017-Dec-09 19:01N 39°34' W 075°31'0 0.0
2017-Dec-09 18:30N 39°34' W 075°31'0 0.0
2017-Dec-09 18:00N 39°34' W 075°31'3 5.5
2017-Dec-09 17:30N 39°35' W 075°35'1 1.3
2017-Dec-09 17:00N 39°35' W 075°35'4 8.9
2017-Dec-09 16:31N 39°39' W 075°34'4 8.4
2017-Dec-09 16:00N 39°43' W 075°31'0 0.0
2017-Dec-09 15:30N 39°43' W 075°31'0 0.0
2017-Dec-09 15:00N 39°43' W 075°31'0 0.0
2017-Dec-09 14:30N 39°43' W 075°31'0 0.0
2017-Dec-09 14:01N 39°43' W 075°31'0 0.0
2017-Dec-09 13:31N 39°43' W 075°31'0 0.0
2017-Dec-09 13:01N 39°43' W 075°31'0 0.0
2017-Dec-09 12:30N 39°43' W 075°31'0 0.0
2017-Dec-09 12:00N 39°43' W 075°31'0 0.0
2017-Dec-09 11:30N 39°43' W 075°31'0 0.0
2017-Dec-09 11:00N 39°43' W 075°31'0 0.0
2017-Dec-09 10:30N 39°43' W 075°31'0 0.0
2017-Dec-09 10:00N 39°43' W 075°31'0 0.0
2017-Dec-09 09:30N 39°43' W 075°31'0 0.0
2017-Dec-09 09:00N 39°43' W 075°31'0 0.0
2017-Dec-09 08:30N 39°43' W 075°31'0 0.0
2017-Dec-09 08:00N 39°43' W 075°31'0 0.0
2017-Dec-09 07:30N 39°43' W 075°31'0 0.0
2017-Dec-09 07:00N 39°43' W 075°31'0 0.0
2017-Dec-09 06:30N 39°43' W 075°31'0 0.0
2017-Dec-09 06:00N 39°43' W 075°31'0 0.0
2017-Dec-09 05:30N 39°43' W 075°31'0 0.0
2017-Dec-09 05:00N 39°43' W 075°31'0 0.0
2017-Dec-09 04:30N 39°43' W 075°31'0 0.0
2017-Dec-09 04:00N 39°43' W 075°31'0 0.0
2017-Dec-09 03:30N 39°43' W 075°31'0 0.0
2017-Dec-09 03:00N 39°43' W 075°31'0 0.0
2017-Dec-09 02:31N 39°43' W 075°31'0 0.0
2017-Dec-09 02:01N 39°43' W 075°31'0 0.0
2017-Dec-09 01:31N 39°43' W 075°31'0 0.0
2017-Dec-09 01:00N 39°43' W 075°31'0 0.0
2017-Dec-09 00:30N 39°43' W 075°31'0 0.0
2017-Dec-09 00:00N 39°43' W 075°31'0 0.0
2017-Dec-08 23:31N 39°43' W 075°31'0 0.0
2017-Dec-08 23:01N 39°43' W 075°31'0 0.0
2017-Dec-08 22:30N 39°43' W 075°31'0 0.0
2017-Dec-08 22:00N 39°43' W 075°31'0 0.0
2017-Dec-08 21:30N 39°43' W 075°31'0 0.0
2017-Dec-08 21:00N 39°43' W 075°31'0 0.0
2017-Dec-08 20:30N 39°43' W 075°31'0 0.0
2017-Dec-08 20:00N 39°43' W 075°31'0 0.0
2017-Dec-08 19:30N 39°43' W 075°31'0 0.0
2017-Dec-08 19:00N 39°43' W 075°31'0 0.0
2017-Dec-08 18:30N 39°43' W 075°31'0 0.0
2017-Dec-08 18:00N 39°43' W 075°31'0 0.0
2017-Dec-08 17:30N 39°43' W 075°31'0 0.0
2017-Dec-08 17:00N 39°43' W 075°31'0 0.0
2017-Dec-08 16:30N 39°43' W 075°31'0 0.0
2017-Dec-08 16:00N 39°43' W 075°31'0 0.0
2017-Dec-08 15:30N 39°43' W 075°31'0 0.0
2017-Dec-08 15:00N 39°43' W 075°31'0 0.0
2017-Dec-08 14:30N 39°43' W 075°31'0 0.0
2017-Dec-08 14:00N 39°43' W 075°31'0 0.0
2017-Dec-08 13:30N 39°43' W 075°31'0 0.0
2017-Dec-08 13:00N 39°43' W 075°31'0 0.0
2017-Dec-08 12:30N 39°43' W 075°31'0 0.0
2017-Dec-08 12:00N 39°43' W 075°31'0 0.0
2017-Dec-08 11:30N 39°43' W 075°31'0 0.0
2017-Dec-08 11:00N 39°43' W 075°31'0 0.0
2017-Dec-08 10:30N 39°43' W 075°31'0 0.0
2017-Dec-08 10:00N 39°43' W 075°31'0 0.0
2017-Dec-08 09:30N 39°43' W 075°31'0 0.0
2017-Dec-08 09:00N 39°43' W 075°31'0 0.0
2017-Dec-08 08:30N 39°43' W 075°31'0 0.0
2017-Dec-08 08:00N 39°43' W 075°31'0 0.0
2017-Dec-08 07:30N 39°43' W 075°31'0 0.0
2017-Dec-08 07:00N 39°43' W 075°31'0 0.0
2017-Dec-08 06:30N 39°43' W 075°31'0 0.0
2017-Dec-08 06:00N 39°43' W 075°31'0 0.0
2017-Dec-08 05:30N 39°43' W 075°31'0 0.0
2017-Dec-08 05:00N 39°43' W 075°31'0 0.0
2017-Dec-08 04:30N 39°43' W 075°31'0 0.0
2017-Dec-08 04:00N 39°43' W 075°31'0 0.0
2017-Dec-08 03:30N 39°43' W 075°31'0 0.0
2017-Dec-08 03:01N 39°43' W 075°31'0 0.0
2017-Dec-08 02:31N 39°43' W 075°31'0 0.0
2017-Dec-08 02:01N 39°43' W 075°31'0 0.0
2017-Dec-08 01:30N 39°43' W 075°31'0 0.0
2017-Dec-08 01:00N 39°43' W 075°31'0 0.0
2017-Dec-08 00:30N 39°43' W 075°31'0 0.0
2017-Dec-08 00:00N 39°43' W 075°31'0 0.0
2017-Dec-07 23:30N 39°43' W 075°31'0 0.0
2017-Dec-07 23:01N 39°43' W 075°31'0 0.0
2017-Dec-07 22:30N 39°43' W 075°31'0 0.0
2017-Dec-07 22:00N 39°43' W 075°31'0 0.0
2017-Dec-07 21:30N 39°43' W 075°31'0 0.0
2017-Dec-07 21:00N 39°43' W 075°31'0 0.0
2017-Dec-07 20:30N 39°43' W 075°31'0 0.0
2017-Dec-07 20:00N 39°43' W 075°31'0 0.1
2017-Dec-07 19:30N 39°43' W 075°31'0 0.1
2017-Dec-07 19:00N 39°43' W 075°31'0 0.0
2017-Dec-07 18:30N 39°43' W 075°31'0 0.0
2017-Dec-07 18:00N 39°43' W 075°31'0 0.0
2017-Dec-07 17:30N 39°43' W 075°31'0 0.0
2017-Dec-07 17:00N 39°43' W 075°31'0 0.0
2017-Dec-07 16:30N 39°43' W 075°31'0 0.0
2017-Dec-07 16:00N 39°43' W 075°31'0 0.0
2017-Dec-07 15:30N 39°43' W 075°31'0 0.0
2017-Dec-07 15:00N 39°43' W 075°31'0 0.0
2017-Dec-07 14:30N 39°43' W 075°31'0 0.0
2017-Dec-07 14:00N 39°43' W 075°31'0 0.0
2017-Dec-07 13:29N 39°43' W 075°31'0 0.0
2017-Dec-07 12:59N 39°43' W 075°31'0 0.0
2017-Dec-07 12:30N 39°43' W 075°31'0 0.0
2017-Dec-07 12:00N 39°43' W 075°31'0 0.0
2017-Dec-07 11:29N 39°43' W 075°31'0 0.0
2017-Dec-07 10:59N 39°43' W 075°31'0 0.0
2017-Dec-07 10:30N 39°43' W 075°31'0 0.0
2017-Dec-07 10:00N 39°43' W 075°31'0 0.0
2017-Dec-07 09:30N 39°43' W 075°31'0 0.0
2017-Dec-07 09:00N 39°43' W 075°31'0 0.0
2017-Dec-07 08:30N 39°43' W 075°31'0 0.0
2017-Dec-07 08:00N 39°43' W 075°31'0 0.0
2017-Dec-07 07:30N 39°43' W 075°31'0 0.0
2017-Dec-07 07:00N 39°43' W 075°31'0 0.0
2017-Dec-07 06:30N 39°43' W 075°31'0 0.0
2017-Dec-07 05:59N 39°43' W 075°31'0 0.0
2017-Dec-07 05:30N 39°43' W 075°31'0 0.0
2017-Dec-07 04:55N 39°43' W 075°31'0 0.0
2017-Dec-07 04:27N 39°43' W 075°31'0 0.0
2017-Dec-07 03:59N 39°43' W 075°31'0 0.0
2017-Dec-07 03:30N 39°43' W 075°31'0 0.0
2017-Dec-07 03:00N 39°43' W 075°31'0 0.0
2017-Dec-07 02:30N 39°43' W 075°31'0 0.0
2017-Dec-07 02:00N 39°43' W 075°31'0 0.0
2017-Dec-07 01:30N 39°43' W 075°31'0 0.0
2017-Dec-07 01:00N 39°43' W 075°31'0 0.0
2017-Dec-07 00:30N 39°43' W 075°31'0 0.0
2017-Dec-07 00:00N 39°43' W 075°31'0 0.0
2017-Dec-06 23:30N 39°43' W 075°31'0 0.0
2017-Dec-06 23:00N 39°43' W 075°31'0 0.0
2017-Dec-06 22:30N 39°43' W 075°31'0 0.0
2017-Dec-06 22:00N 39°43' W 075°31'0 0.0
2017-Dec-06 21:30N 39°43' W 075°31'0 0.0
2017-Dec-06 21:00N 39°43' W 075°31'  
2017-Dec-04 10:30N 39°43' W 075°31'0 0.0
2017-Dec-04 10:01N 39°43' W 075°31'0 0.0
2017-Dec-04 09:23N 39°43' W 075°31'0 0.0
2017-Dec-04 08:59N 39°43' W 075°31'0 0.0
2017-Dec-04 08:18N 39°43' W 075°31'0 0.0
2017-Dec-04 07:57N 39°43' W 075°31'0 0.0
2017-Dec-04 07:25N 39°43' W 075°31'0 0.4
2017-Dec-04 06:59N 39°43' W 075°31'1 2.4
2017-Dec-04 06:27N 39°42' W 075°31'0 0.1
2017-Dec-04 05:55N 39°42' W 075°31'0 0.7
2017-Dec-04 05:30N 39°42' W 075°31'1 2.5
2017-Dec-04 04:59N 39°43' W 075°31'0 0.0
2017-Dec-04 04:26N 39°43' W 075°31'0 0.0
2017-Dec-04 04:00N 39°43' W 075°31'0 0.0
2017-Dec-04 03:27N 39°43' W 075°31'0 0.0
2017-Dec-04 02:58N 39°43' W 075°31'0 0.0
2017-Dec-04 02:28N 39°43' W 075°31'0 0.0
2017-Dec-04 01:59N 39°43' W 075°31'0 0.0
2017-Dec-04 01:25N 39°43' W 075°31'0 0.0
2017-Dec-04 00:48N 39°43' W 075°31'0 0.0
2017-Dec-04 00:27N 39°43' W 075°31'0 0.0
2017-Dec-04 00:00N 39°43' W 075°31'0 0.0
2017-Dec-03 23:25N 39°43' W 075°31'0 0.0
2017-Dec-03 23:00N 39°43' W 075°31'0 0.0
2017-Dec-03 22:29N 39°43' W 075°31'0 0.0
2017-Dec-03 22:00N 39°43' W 075°31'0 0.0
2017-Dec-03 21:29N 39°43' W 075°31'0 0.0
2017-Dec-03 20:55N 39°43' W 075°31'0 0.0
2017-Dec-03 20:30N 39°43' W 075°31'0 0.0
2017-Dec-03 20:01N 39°43' W 075°31'0 0.0
2017-Dec-03 19:20N 39°43' W 075°31'0 0.0
2017-Dec-03 18:59N 39°43' W 075°31'0 0.0
2017-Dec-03 18:27N 39°43' W 075°31'0 0.0
2017-Dec-03 18:00N 39°43' W 075°31'0 0.0
2017-Dec-03 17:29N 39°43' W 075°31'0 0.0
2017-Dec-03 16:58N 39°43' W 075°31'0 0.0
2017-Dec-03 16:20N 39°43' W 075°31'0 0.0
2017-Dec-03 16:00N 39°43' W 075°31'0 0.0
2017-Dec-03 15:29N 39°43' W 075°31'0 0.0
2017-Dec-03 14:56N 39°43' W 075°31'0 0.0
2017-Dec-03 14:30N 39°43' W 075°31'0 0.0
2017-Dec-03 14:00N 39°43' W 075°31'0 0.0
2017-Dec-03 13:24N 39°43' W 075°31'0 0.0
2017-Dec-03 13:00N 39°43' W 075°31'0 0.0
2017-Dec-03 12:30N 39°43' W 075°31'1 1.4
2017-Dec-03 11:59N 39°43' W 075°32'1 1.7
2017-Dec-03 11:28N 39°44' W 075°32'1 2.5
2017-Dec-03 10:59N 39°43' W 075°31'0 0.1
2017-Dec-03 10:27N 39°43' W 075°31'0 0.0
2017-Dec-03 10:00N 39°43' W 075°31'0 0.0
2017-Dec-03 09:30N 39°43' W 075°31'0 0.0
2017-Dec-03 09:00N 39°43' W 075°31'0 0.0
2017-Dec-03 08:30N 39°43' W 075°31'0 0.0
2017-Dec-03 07:59N 39°43' W 075°31'0 0.0
2017-Dec-03 07:29N 39°43' W 075°31'0 0.0
2017-Dec-03 07:00N 39°43' W 075°31'0 0.0
2017-Dec-03 06:29N 39°43' W 075°31'0 0.0
2017-Dec-03 05:57N 39°43' W 075°31'0 0.0
2017-Dec-03 05:29N 39°43' W 075°31'0 0.0
2017-Dec-03 04:50N 39°43' W 075°31'0 0.0
2017-Dec-03 04:26N 39°43' W 075°31'0 0.0
2017-Dec-03 03:57N 39°43' W 075°31'0 0.0
2017-Dec-03 03:28N 39°43' W 075°31'0 0.0
2017-Dec-03 03:00N 39°43' W 075°31'0 0.0
2017-Dec-03 02:26N 39°43' W 075°31'0 0.0
2017-Dec-03 01:55N 39°43' W 075°31'0 0.0
2017-Dec-03 01:24N 39°43' W 075°31'0 0.0
2017-Dec-03 00:59N 39°43' W 075°31'0 0.0
2017-Dec-03 00:25N 39°43' W 075°31'0 0.0
2017-Dec-03 00:00N 39°43' W 075°31'0 0.0
2017-Dec-02 23:28N 39°43' W 075°31'0 0.0
2017-Dec-02 23:00N 39°43' W 075°31'0 0.0
2017-Dec-02 22:30N 39°43' W 075°31'0 0.0
2017-Dec-02 22:00N 39°43' W 075°31'0 0.0
2017-Dec-02 21:30N 39°43' W 075°31'0 0.0
2017-Dec-02 21:00N 39°43' W 075°31'0 0.0
2017-Dec-02 20:28N 39°43' W 075°31'0 0.0
2017-Dec-02 20:00N 39°43' W 075°31'0 0.0
2017-Dec-02 19:30N 39°43' W 075°31'0 0.0
2017-Dec-02 18:59N 39°43' W 075°31'0 0.1
2017-Dec-02 18:30N 39°43' W 075°31'0 0.0
2017-Dec-02 18:00N 39°43' W 075°31'0 0.0
2017-Dec-02 17:28N 39°43' W 075°31'0 0.0
2017-Dec-02 17:00N 39°43' W 075°31'0 0.0
2017-Dec-02 16:29N 39°43' W 075°31'0 0.0
2017-Dec-02 16:00N 39°43' W 075°31'0 0.0
2017-Dec-02 15:30N 39°43' W 075°31'0 0.0
2017-Dec-02 15:00N 39°43' W 075°31'0 0.0
2017-Dec-02 14:25N 39°43' W 075°31'0 0.0
2017-Dec-02 13:58N 39°43' W 075°31'0 0.0
2017-Dec-02 13:29N 39°43' W 075°31'0 0.0
2017-Dec-02 12:57N 39°43' W 075°31'0 0.0
2017-Dec-02 12:30N 39°43' W 075°31'0 0.0
2017-Dec-02 11:59N 39°43' W 075°31'0 0.0
2017-Dec-02 11:29N 39°43' W 075°31'0 0.0
2017-Dec-02 10:57N 39°43' W 075°31'0 0.0
2017-Dec-02 10:30N 39°43' W 075°31'0 0.0
2017-Dec-02 09:57N 39°43' W 075°31'0 0.0
2017-Dec-02 09:29N 39°43' W 075°31'0 0.0
2017-Dec-02 08:58N 39°43' W 075°31'0 0.0
2017-Dec-02 08:30N 39°43' W 075°31'0 0.0
2017-Dec-02 08:00N 39°43' W 075°31'0 0.0
2017-Dec-02 07:27N 39°43' W 075°31'0 0.0
2017-Dec-02 06:58N 39°43' W 075°31'0 0.0
2017-Dec-02 06:30N 39°43' W 075°31'0 0.0
2017-Dec-02 05:57N 39°43' W 075°31'0 0.0
2017-Dec-02 05:30N 39°43' W 075°31'0 0.0
2017-Dec-02 04:58N 39°43' W 075°31'0 0.0
2017-Dec-02 04:28N 39°43' W 075°31'0 0.0
2017-Dec-02 03:57N 39°43' W 075°31'0 0.0
2017-Dec-02 03:27N 39°43' W 075°31'0 0.0
2017-Dec-02 02:59N 39°43' W 075°31'0 0.0
2017-Dec-02 02:30N 39°43' W 075°31'0 0.0
2017-Dec-02 01:59N 39°43' W 075°31'0 0.0
2017-Dec-02 01:30N 39°43' W 075°31'0 0.0
2017-Dec-02 00:58N 39°43' W 075°31'0 0.0
2017-Dec-02 00:30N 39°43' W 075°31'0 0.0
2017-Dec-01 23:57N 39°43' W 075°31'0 0.0
2017-Dec-01 23:27N 39°43' W 075°31'0 0.0
2017-Dec-01 23:00N 39°43' W 075°31'0 0.0
2017-Dec-01 22:30N 39°43' W 075°31'0 0.0
2017-Dec-01 22:00N 39°43' W 075°31'0 0.2
2017-Dec-01 21:28N 39°43' W 075°32'0 0.0
2017-Dec-01 21:00N 39°43' W 075°32'0 0.0
2017-Dec-01 20:30N 39°43' W 075°32'0 0.0
2017-Dec-01 20:00N 39°43' W 075°32'0 0.0
2017-Dec-01 19:30N 39°43' W 075°32'0 0.0
2017-Dec-01 19:00N 39°43' W 075°32'0 0.0
2017-Dec-01 18:30N 39°43' W 075°32'0 0.0
2017-Dec-01 18:01N 39°43' W 075°32'0 0.0
2017-Dec-01 17:30N 39°43' W 075°32'0 0.0
2017-Dec-01 17:00N 39°43' W 075°32'0 0.0
2017-Dec-01 16:15N 39°43' W 075°32'0 0.0
2017-Dec-01 16:01N 39°43' W 075°32'0 0.0
2017-Dec-01 15:30N 39°43' W 075°32'0 0.0
2017-Dec-01 15:00N 39°43' W 075°32'0 0.0
2017-Dec-01 14:30N 39°43' W 075°32'0 0.0
2017-Dec-01 14:00N 39°43' W 075°32'0 0.0
2017-Dec-01 13:30N 39°43' W 075°32'0 0.0
2017-Dec-01 13:00N 39°43' W 075°32'0 0.0
2017-Dec-01 12:31N 39°43' W 075°32'0 0.0
2017-Dec-01 12:00N 39°43' W 075°32'0 0.0
2017-Dec-01 11:31N 39°43' W 075°32'0 0.0
2017-Dec-01 11:00N 39°43' W 075°32'0 0.0
2017-Dec-01 10:31N 39°43' W 075°32'0 0.0
2017-Dec-01 10:00N 39°43' W 075°32'0 0.0
2017-Dec-01 09:31N 39°43' W 075°32'0 0.0
2017-Dec-01 09:01N 39°43' W 075°32'0 0.0
2017-Dec-01 08:31N 39°43' W 075°32'0 0.9
2017-Dec-01 08:00N 39°43' W 075°31'1 1.2
2017-Dec-01 07:31N 39°43' W 075°32'0 0.0
2017-Dec-01 07:01N 39°43' W 075°32'0 0.0
2017-Dec-01 06:31N 39°43' W 075°32'0 0.0
2017-Dec-01 06:00N 39°43' W 075°32'0 0.0
2017-Dec-01 05:30N 39°43' W 075°32'0 0.0
2017-Dec-01 05:01N 39°43' W 075°32'0 0.0
2017-Dec-01 04:30N 39°43' W 075°32'0 0.0
2017-Dec-01 04:01N 39°43' W 075°32'  
Track history (hours):
 
Tides and Currents Weather Stations Pressure Air Temp Water Temp Dewpoint Dewpoint Depression Visibility Wind Speed Wind Dir Waves Ship Positions

Tina

Owner: Wilmington Tug, Inc., New Castle, DE. More information available from US FCC via Universal Licensing System and Coast Guard Vessel Documentation Center.

Last reported at 2017-Dec-11 04:00 UTC. Time now 2017-Dec-11 04:27 UTC.
Position N 39°43' W 075°31'.

Length 20 m; draft 3.4 m.

Type: Tug. MMSI: 367012670.

Date/timePositionNaut miles runAvg speedWind from/ knotsBaromVisibWave heightAir tempDewpointWater temp
2017-Dec-11 04:00N 39°43' W 075°31'0 0.0
2017-Dec-11 03:30N 39°43' W 075°31'0 0.0
2017-Dec-11 03:00N 39°43' W 075°31'0 0.0
2017-Dec-11 02:30N 39°43' W 075°31'0 0.0
2017-Dec-11 02:00N 39°43' W 075°31'0 0.0
2017-Dec-11 01:30N 39°43' W 075°31'0 0.0
2017-Dec-11 01:00N 39°43' W 075°31'0 0.0
2017-Dec-11 00:30N 39°43' W 075°31'0 0.0
2017-Dec-11 00:00N 39°43' W 075°31'0 0.0
2017-Dec-10 23:30N 39°43' W 075°31'0 0.0
2017-Dec-10 23:00N 39°43' W 075°31'0 0.0
2017-Dec-10 22:30N 39°43' W 075°31'0 0.0
2017-Dec-10 22:00N 39°43' W 075°31'0 0.0
2017-Dec-10 21:30N 39°43' W 075°31'0 0.0
2017-Dec-10 21:00N 39°43' W 075°31'0 0.0
2017-Dec-10 20:30N 39°43' W 075°31'0 0.0
2017-Dec-10 20:00N 39°43' W 075°31'0 0.0
2017-Dec-10 19:30N 39°43' W 075°31'0 0.0
2017-Dec-10 19:00N 39°43' W 075°31'0 0.0
2017-Dec-10 18:30N 39°43' W 075°31'0 0.0
2017-Dec-10 18:00N 39°43' W 075°31'0 0.0
2017-Dec-10 17:30N 39°43' W 075°31'0 0.0
2017-Dec-10 17:00N 39°43' W 075°31'0 0.0
2017-Dec-10 16:31N 39°43' W 075°31'0 0.0
2017-Dec-10 16:00N 39°43' W 075°31'0 0.0
2017-Dec-10 15:30N 39°43' W 075°31'0 0.0
2017-Dec-10 15:00N 39°43' W 075°31'0 0.0
2017-Dec-10 14:30N 39°43' W 075°31'0 0.0
2017-Dec-10 14:00N 39°43' W 075°31'0 0.0
2017-Dec-10 13:30N 39°43' W 075°31'0 0.0
2017-Dec-10 13:00N 39°43' W 075°31'0 0.0
2017-Dec-10 12:30N 39°43' W 075°31'0 0.0
2017-Dec-10 12:00N 39°43' W 075°31'0 0.0
2017-Dec-10 11:30N 39°43' W 075°31'0 0.0
2017-Dec-10 11:00N 39°43' W 075°31'0 0.0
2017-Dec-10 10:30N 39°43' W 075°31'0 0.0
2017-Dec-10 10:00N 39°43' W 075°31'0 0.0
2017-Dec-10 09:30N 39°43' W 075°31'0 0.0
2017-Dec-10 09:00N 39°43' W 075°31'0 0.0
2017-Dec-10 08:30N 39°43' W 075°31'0 0.0
2017-Dec-10 08:00N 39°43' W 075°31'0 0.0
2017-Dec-10 07:30N 39°43' W 075°31'0 0.0
2017-Dec-10 07:00N 39°43' W 075°31'0 0.0
2017-Dec-10 06:30N 39°43' W 075°31'0 0.0
2017-Dec-10 06:00N 39°43' W 075°31'0 0.0
2017-Dec-10 05:30N 39°43' W 075°31'0 0.0
2017-Dec-10 05:00N 39°43' W 075°31'0 0.0
2017-Dec-10 04:30N 39°43' W 075°31'0 0.0
2017-Dec-10 04:00N 39°43' W 075°31'0 0.0
2017-Dec-10 03:30N 39°43' W 075°31'0 0.0
2017-Dec-10 03:00N 39°43' W 075°31'0 0.0
2017-Dec-10 02:30N 39°43' W 075°31'0 0.0
2017-Dec-10 02:00N 39°43' W 075°31'0 0.0
2017-Dec-10 01:30N 39°43' W 075°31'0 0.0
2017-Dec-10 01:00N 39°43' W 075°31'0 0.0
2017-Dec-10 00:30N 39°43' W 075°31'0 0.0
2017-Dec-10 00:00N 39°43' W 075°31'0 0.0
2017-Dec-09 23:30N 39°43' W 075°31'0 0.0
2017-Dec-09 23:00N 39°43' W 075°31'0 0.0
2017-Dec-09 22:30N 39°43' W 075°31'0 0.0
2017-Dec-09 22:00N 39°43' W 075°31'0 0.0
2017-Dec-09 21:31N 39°43' W 075°31'4 8.9
2017-Dec-09 21:01N 39°39' W 075°34'4 8.7
2017-Dec-09 20:31N 39°35' W 075°35'3 6.0
2017-Dec-09 20:00N 39°33' W 075°32'1 1.4
2017-Dec-09 19:30N 39°34' W 075°31'0 0.1
2017-Dec-09 19:01N 39°34' W 075°31'0 0.0
2017-Dec-09 18:30N 39°34' W 075°31'0 0.0
2017-Dec-09 18:00N 39°34' W 075°31'3 5.5
2017-Dec-09 17:30N 39°35' W 075°35'1 1.3
2017-Dec-09 17:00N 39°35' W 075°35'4 8.9
2017-Dec-09 16:31N 39°39' W 075°34'4 8.4
2017-Dec-09 16:00N 39°43' W 075°31'0 0.0
2017-Dec-09 15:30N 39°43' W 075°31'0 0.0
2017-Dec-09 15:00N 39°43' W 075°31'0 0.0
2017-Dec-09 14:30N 39°43' W 075°31'0 0.0
2017-Dec-09 14:01N 39°43' W 075°31'0 0.0
2017-Dec-09 13:31N 39°43' W 075°31'0 0.0
2017-Dec-09 13:01N 39°43' W 075°31'0 0.0
2017-Dec-09 12:30N 39°43' W 075°31'0 0.0
2017-Dec-09 12:00N 39°43' W 075°31'0 0.0
2017-Dec-09 11:30N 39°43' W 075°31'0 0.0
2017-Dec-09 11:00N 39°43' W 075°31'0 0.0
2017-Dec-09 10:30N 39°43' W 075°31'0 0.0
2017-Dec-09 10:00N 39°43' W 075°31'0 0.0
2017-Dec-09 09:30N 39°43' W 075°31'0 0.0
2017-Dec-09 09:00N 39°43' W 075°31'0 0.0
2017-Dec-09 08:30N 39°43' W 075°31'0 0.0
2017-Dec-09 08:00N 39°43' W 075°31'0 0.0
2017-Dec-09 07:30N 39°43' W 075°31'0 0.0
2017-Dec-09 07:00N 39°43' W 075°31'0 0.0
2017-Dec-09 06:30N 39°43' W 075°31'0 0.0
2017-Dec-09 06:00N 39°43' W 075°31'0 0.0
2017-Dec-09 05:30N 39°43' W 075°31'0 0.0
2017-Dec-09 05:00N 39°43' W 075°31'0 0.0
2017-Dec-09 04:30N 39°43' W 075°31'0 0.0
2017-Dec-09 04:00N 39°43' W 075°31'0 0.0
2017-Dec-09 03:30N 39°43' W 075°31'0 0.0
2017-Dec-09 03:00N 39°43' W 075°31'0 0.0
2017-Dec-09 02:31N 39°43' W 075°31'0 0.0
2017-Dec-09 02:01N 39°43' W 075°31'0 0.0
2017-Dec-09 01:31N 39°43' W 075°31'0 0.0
2017-Dec-09 01:00N 39°43' W 075°31'0 0.0
2017-Dec-09 00:30N 39°43' W 075°31'0 0.0
2017-Dec-09 00:00N 39°43' W 075°31'0 0.0
2017-Dec-08 23:31N 39°43' W 075°31'0 0.0
2017-Dec-08 23:01N 39°43' W 075°31'0 0.0
2017-Dec-08 22:30N 39°43' W 075°31'0 0.0
2017-Dec-08 22:00N 39°43' W 075°31'0 0.0
2017-Dec-08 21:30N 39°43' W 075°31'0 0.0
2017-Dec-08 21:00N 39°43' W 075°31'0 0.0
2017-Dec-08 20:30N 39°43' W 075°31'0 0.0
2017-Dec-08 20:00N 39°43' W 075°31'0 0.0
2017-Dec-08 19:30N 39°43' W 075°31'0 0.0
2017-Dec-08 19:00N 39°43' W 075°31'0 0.0
2017-Dec-08 18:30N 39°43' W 075°31'0 0.0
2017-Dec-08 18:00N 39°43' W 075°31'0 0.0
2017-Dec-08 17:30N 39°43' W 075°31'0 0.0
2017-Dec-08 17:00N 39°43' W 075°31'0 0.0
2017-Dec-08 16:30N 39°43' W 075°31'0 0.0
2017-Dec-08 16:00N 39°43' W 075°31'0 0.0
2017-Dec-08 15:30N 39°43' W 075°31'0 0.0
2017-Dec-08 15:00N 39°43' W 075°31'0 0.0
2017-Dec-08 14:30N 39°43' W 075°31'0 0.0
2017-Dec-08 14:00N 39°43' W 075°31'0 0.0
2017-Dec-08 13:30N 39°43' W 075°31'0 0.0
2017-Dec-08 13:00N 39°43' W 075°31'0 0.0
2017-Dec-08 12:30N 39°43' W 075°31'0 0.0
2017-Dec-08 12:00N 39°43' W 075°31'0 0.0
2017-Dec-08 11:30N 39°43' W 075°31'0 0.0
2017-Dec-08 11:00N 39°43' W 075°31'0 0.0
2017-Dec-08 10:30N 39°43' W 075°31'0 0.0
2017-Dec-08 10:00N 39°43' W 075°31'0 0.0
2017-Dec-08 09:30N 39°43' W 075°31'0 0.0
2017-Dec-08 09:00N 39°43' W 075°31'0 0.0
2017-Dec-08 08:30N 39°43' W 075°31'0 0.0
2017-Dec-08 08:00N 39°43' W 075°31'0 0.0
2017-Dec-08 07:30N 39°43' W 075°31'0 0.0
2017-Dec-08 07:00N 39°43' W 075°31'0 0.0
2017-Dec-08 06:30N 39°43' W 075°31'0 0.0
2017-Dec-08 06:00N 39°43' W 075°31'0 0.0
2017-Dec-08 05:30N 39°43' W 075°31'0 0.0
2017-Dec-08 05:00N 39°43' W 075°31'0 0.0
2017-Dec-08 04:30N 39°43' W 075°31'0 0.0
2017-Dec-08 04:00N 39°43' W 075°31'0 0.0
2017-Dec-08 03:30N 39°43' W 075°31'0 0.0
2017-Dec-08 03:01N 39°43' W 075°31'0 0.0
2017-Dec-08 02:31N 39°43' W 075°31'0 0.0
2017-Dec-08 02:01N 39°43' W 075°31'0 0.0
2017-Dec-08 01:30N 39°43' W 075°31'0 0.0
2017-Dec-08 01:00N 39°43' W 075°31'0 0.0
2017-Dec-08 00:30N 39°43' W 075°31'0 0.0
2017-Dec-08 00:00N 39°43' W 075°31'0 0.0
2017-Dec-07 23:30N 39°43' W 075°31'0 0.0
2017-Dec-07 23:01N 39°43' W 075°31'0 0.0
2017-Dec-07 22:30N 39°43' W 075°31'0 0.0
2017-Dec-07 22:00N 39°43' W 075°31'0 0.0
2017-Dec-07 21:30N 39°43' W 075°31'0 0.0
2017-Dec-07 21:00N 39°43' W 075°31'0 0.0
2017-Dec-07 20:30N 39°43' W 075°31'0 0.0
2017-Dec-07 20:00N 39°43' W 075°31'0 0.1
2017-Dec-07 19:30N 39°43' W 075°31'0 0.1
2017-Dec-07 19:00N 39°43' W 075°31'0 0.0
2017-Dec-07 18:30N 39°43' W 075°31'0 0.0
2017-Dec-07 18:00N 39°43' W 075°31'0 0.0
2017-Dec-07 17:30N 39°43' W 075°31'0 0.0
2017-Dec-07 17:00N 39°43' W 075°31'0 0.0
2017-Dec-07 16:30N 39°43' W 075°31'0 0.0
2017-Dec-07 16:00N 39°43' W 075°31'0 0.0
2017-Dec-07 15:30N 39°43' W 075°31'0 0.0
2017-Dec-07 15:00N 39°43' W 075°31'0 0.0
2017-Dec-07 14:30N 39°43' W 075°31'0 0.0
2017-Dec-07 14:00N 39°43' W 075°31'0 0.0
2017-Dec-07 13:29N 39°43' W 075°31'0 0.0
2017-Dec-07 12:59N 39°43' W 075°31'0 0.0
2017-Dec-07 12:30N 39°43' W 075°31'0 0.0
2017-Dec-07 12:00N 39°43' W 075°31'0 0.0
2017-Dec-07 11:29N 39°43' W 075°31'0 0.0
2017-Dec-07 10:59N 39°43' W 075°31'0 0.0
2017-Dec-07 10:30N 39°43' W 075°31'0 0.0
2017-Dec-07 10:00N 39°43' W 075°31'0 0.0
2017-Dec-07 09:30N 39°43' W 075°31'0 0.0
2017-Dec-07 09:00N 39°43' W 075°31'0 0.0
2017-Dec-07 08:30N 39°43' W 075°31'0 0.0
2017-Dec-07 08:00N 39°43' W 075°31'0 0.0
2017-Dec-07 07:30N 39°43' W 075°31'0 0.0
2017-Dec-07 07:00N 39°43' W 075°31'0 0.0
2017-Dec-07 06:30N 39°43' W 075°31'0 0.0
2017-Dec-07 05:59N 39°43' W 075°31'0 0.0
2017-Dec-07 05:30N 39°43' W 075°31'0 0.0
2017-Dec-07 04:55N 39°43' W 075°31'0 0.0
2017-Dec-07 04:27N 39°43' W 075°31'0 0.0
2017-Dec-07 03:59N 39°43' W 075°31'0 0.0
2017-Dec-07 03:30N 39°43' W 075°31'0 0.0
2017-Dec-07 03:00N 39°43' W 075°31'0 0.0
2017-Dec-07 02:30N 39°43' W 075°31'0 0.0
2017-Dec-07 02:00N 39°43' W 075°31'0 0.0
2017-Dec-07 01:30N 39°43' W 075°31'0 0.0
2017-Dec-07 01:00N 39°43' W 075°31'0 0.0
2017-Dec-07 00:30N 39°43' W 075°31'0 0.0
2017-Dec-07 00:00N 39°43' W 075°31'0 0.0
2017-Dec-06 23:30N 39°43' W 075°31'0 0.0
2017-Dec-06 23:00N 39°43' W 075°31'0 0.0
2017-Dec-06 22:30N 39°43' W 075°31'0 0.0
2017-Dec-06 22:00N 39°43' W 075°31'0 0.0
2017-Dec-06 21:30N 39°43' W 075°31'0 0.0
2017-Dec-06 21:00N 39°43' W 075°31'  
2017-Dec-04 10:30N 39°43' W 075°31'0 0.0
2017-Dec-04 10:01N 39°43' W 075°31'0 0.0
2017-Dec-04 09:23N 39°43' W 075°31'0 0.0
2017-Dec-04 08:59N 39°43' W 075°31'0 0.0
2017-Dec-04 08:18N 39°43' W 075°31'0 0.0
2017-Dec-04 07:57N 39°43' W 075°31'0 0.0
2017-Dec-04 07:25N 39°43' W 075°31'0 0.4
2017-Dec-04 06:59N 39°43' W 075°31'1 2.4
2017-Dec-04 06:27N 39°42' W 075°31'0 0.1
2017-Dec-04 05:55N 39°42' W 075°31'0 0.7
2017-Dec-04 05:30N 39°42' W 075°31'1 2.5
2017-Dec-04 04:59N 39°43' W 075°31'0 0.0
2017-Dec-04 04:26N 39°43' W 075°31'0 0.0
2017-Dec-04 04:00N 39°43' W 075°31'0 0.0
2017-Dec-04 03:27N 39°43' W 075°31'0 0.0
2017-Dec-04 02:58N 39°43' W 075°31'0 0.0
2017-Dec-04 02:28N 39°43' W 075°31'0 0.0
2017-Dec-04 01:59N 39°43' W 075°31'0 0.0
2017-Dec-04 01:25N 39°43' W 075°31'0 0.0
2017-Dec-04 00:48N 39°43' W 075°31'0 0.0
2017-Dec-04 00:27N 39°43' W 075°31'0 0.0
2017-Dec-04 00:00N 39°43' W 075°31'0 0.0
2017-Dec-03 23:25N 39°43' W 075°31'0 0.0
2017-Dec-03 23:00N 39°43' W 075°31'0 0.0
2017-Dec-03 22:29N 39°43' W 075°31'0 0.0
2017-Dec-03 22:00N 39°43' W 075°31'0 0.0
2017-Dec-03 21:29N 39°43' W 075°31'0 0.0
2017-Dec-03 20:55N 39°43' W 075°31'0 0.0
2017-Dec-03 20:30N 39°43' W 075°31'0 0.0
2017-Dec-03 20:01N 39°43' W 075°31'0 0.0
2017-Dec-03 19:20N 39°43' W 075°31'0 0.0
2017-Dec-03 18:59N 39°43' W 075°31'0 0.0
2017-Dec-03 18:27N 39°43' W 075°31'0 0.0
2017-Dec-03 18:00N 39°43' W 075°31'0 0.0
2017-Dec-03 17:29N 39°43' W 075°31'0 0.0
2017-Dec-03 16:58N 39°43' W 075°31'0 0.0
2017-Dec-03 16:20N 39°43' W 075°31'0 0.0
2017-Dec-03 16:00N 39°43' W 075°31'0 0.0
2017-Dec-03 15:29N 39°43' W 075°31'0 0.0
2017-Dec-03 14:56N 39°43' W 075°31'0 0.0
2017-Dec-03 14:30N 39°43' W 075°31'0 0.0
2017-Dec-03 14:00N 39°43' W 075°31'0 0.0
2017-Dec-03 13:24N 39°43' W 075°31'0 0.0
2017-Dec-03 13:00N 39°43' W 075°31'0 0.0
2017-Dec-03 12:30N 39°43' W 075°31'1 1.4
2017-Dec-03 11:59N 39°43' W 075°32'1 1.7
2017-Dec-03 11:28N 39°44' W 075°32'1 2.5
2017-Dec-03 10:59N 39°43' W 075°31'0 0.1
2017-Dec-03 10:27N 39°43' W 075°31'0 0.0
2017-Dec-03 10:00N 39°43' W 075°31'0 0.0
2017-Dec-03 09:30N 39°43' W 075°31'0 0.0
2017-Dec-03 09:00N 39°43' W 075°31'0 0.0
2017-Dec-03 08:30N 39°43' W 075°31'0 0.0
2017-Dec-03 07:59N 39°43' W 075°31'0 0.0
2017-Dec-03 07:29N 39°43' W 075°31'0 0.0
2017-Dec-03 07:00N 39°43' W 075°31'0 0.0
2017-Dec-03 06:29N 39°43' W 075°31'0 0.0
2017-Dec-03 05:57N 39°43' W 075°31'0 0.0
2017-Dec-03 05:29N 39°43' W 075°31'0 0.0
2017-Dec-03 04:50N 39°43' W 075°31'0 0.0
2017-Dec-03 04:26N 39°43' W 075°31'0 0.0
2017-Dec-03 03:57N 39°43' W 075°31'0 0.0
2017-Dec-03 03:28N 39°43' W 075°31'0 0.0
2017-Dec-03 03:00N 39°43' W 075°31'0 0.0
2017-Dec-03 02:26N 39°43' W 075°31'0 0.0
2017-Dec-03 01:55N 39°43' W 075°31'0 0.0
2017-Dec-03 01:24N 39°43' W 075°31'0 0.0
2017-Dec-03 00:59N 39°43' W 075°31'0 0.0
2017-Dec-03 00:25N 39°43' W 075°31'0 0.0
2017-Dec-03 00:00N 39°43' W 075°31'0 0.0
2017-Dec-02 23:28N 39°43' W 075°31'0 0.0
2017-Dec-02 23:00N 39°43' W 075°31'0 0.0
2017-Dec-02 22:30N 39°43' W 075°31'0 0.0
2017-Dec-02 22:00N 39°43' W 075°31'0 0.0
2017-Dec-02 21:30N 39°43' W 075°31'0 0.0
2017-Dec-02 21:00N 39°43' W 075°31'0 0.0
2017-Dec-02 20:28N 39°43' W 075°31'0 0.0
2017-Dec-02 20:00N 39°43' W 075°31'0 0.0
2017-Dec-02 19:30N 39°43' W 075°31'0 0.0
2017-Dec-02 18:59N 39°43' W 075°31'0 0.1
2017-Dec-02 18:30N 39°43' W 075°31'0 0.0
2017-Dec-02 18:00N 39°43' W 075°31'0 0.0
2017-Dec-02 17:28N 39°43' W 075°31'0 0.0
2017-Dec-02 17:00N 39°43' W 075°31'0 0.0
2017-Dec-02 16:29N 39°43' W 075°31'0 0.0
2017-Dec-02 16:00N 39°43' W 075°31'0 0.0
2017-Dec-02 15:30N 39°43' W 075°31'0 0.0
2017-Dec-02 15:00N 39°43' W 075°31'0 0.0
2017-Dec-02 14:25N 39°43' W 075°31'0 0.0
2017-Dec-02 13:58N 39°43' W 075°31'0 0.0
2017-Dec-02 13:29N 39°43' W 075°31'0 0.0
2017-Dec-02 12:57N 39°43' W 075°31'0 0.0
2017-Dec-02 12:30N 39°43' W 075°31'0 0.0
2017-Dec-02 11:59N 39°43' W 075°31'0 0.0
2017-Dec-02 11:29N 39°43' W 075°31'0 0.0
2017-Dec-02 10:57N 39°43' W 075°31'0 0.0
2017-Dec-02 10:30N 39°43' W 075°31'0 0.0
2017-Dec-02 09:57N 39°43' W 075°31'0 0.0
2017-Dec-02 09:29N 39°43' W 075°31'0 0.0
2017-Dec-02 08:58N 39°43' W 075°31'0 0.0
2017-Dec-02 08:30N 39°43' W 075°31'0 0.0
2017-Dec-02 08:00N 39°43' W 075°31'0 0.0
2017-Dec-02 07:27N 39°43' W 075°31'0 0.0
2017-Dec-02 06:58N 39°43' W 075°31'0 0.0
2017-Dec-02 06:30N 39°43' W 075°31'0 0.0
2017-Dec-02 05:57N 39°43' W 075°31'0 0.0
2017-Dec-02 05:30N 39°43' W 075°31'0 0.0
2017-Dec-02 04:58N 39°43' W 075°31'0 0.0
2017-Dec-02 04:28N 39°43' W 075°31'0 0.0
2017-Dec-02 03:57N 39°43' W 075°31'0 0.0
2017-Dec-02 03:27N 39°43' W 075°31'0 0.0
2017-Dec-02 02:59N 39°43' W 075°31'0 0.0
2017-Dec-02 02:30N 39°43' W 075°31'0 0.0
2017-Dec-02 01:59N 39°43' W 075°31'0 0.0
2017-Dec-02 01:30N 39°43' W 075°31'0 0.0
2017-Dec-02 00:58N 39°43' W 075°31'0 0.0
2017-Dec-02 00:30N 39°43' W 075°31'0 0.0
2017-Dec-01 23:57N 39°43' W 075°31'0 0.0
2017-Dec-01 23:27N 39°43' W 075°31'0 0.0
2017-Dec-01 23:00N 39°43' W 075°31'0 0.0
2017-Dec-01 22:30N 39°43' W 075°31'0 0.0
2017-Dec-01 22:00N 39°43' W 075°31'0 0.2
2017-Dec-01 21:28N 39°43' W 075°32'0 0.0
2017-Dec-01 21:00N 39°43' W 075°32'0 0.0
2017-Dec-01 20:30N 39°43' W 075°32'0 0.0
2017-Dec-01 20:00N 39°43' W 075°32'0 0.0
2017-Dec-01 19:30N 39°43' W 075°32'0 0.0
2017-Dec-01 19:00N 39°43' W 075°32'0 0.0
2017-Dec-01 18:30N 39°43' W 075°32'0 0.0
2017-Dec-01 18:01N 39°43' W 075°32'0 0.0
2017-Dec-01 17:30N 39°43' W 075°32'0 0.0
2017-Dec-01 17:00N 39°43' W 075°32'0 0.0
2017-Dec-01 16:15N 39°43' W 075°32'0 0.0
2017-Dec-01 16:01N 39°43' W 075°32'0 0.0
2017-Dec-01 15:30N 39°43' W 075°32'0 0.0
2017-Dec-01 15:00N 39°43' W 075°32'0 0.0
2017-Dec-01 14:30N 39°43' W 075°32'0 0.0
2017-Dec-01 14:00N 39°43' W 075°32'0 0.0
2017-Dec-01 13:30N 39°43' W 075°32'0 0.0
2017-Dec-01 13:00N 39°43' W 075°32'0 0.0
2017-Dec-01 12:31N 39°43' W 075°32'0 0.0
2017-Dec-01 12:00N 39°43' W 075°32'0 0.0
2017-Dec-01 11:31N 39°43' W 075°32'0 0.0
2017-Dec-01 11:00N 39°43' W 075°32'0 0.0
2017-Dec-01 10:31N 39°43' W 075°32'0 0.0
2017-Dec-01 10:00N 39°43' W 075°32'0 0.0
2017-Dec-01 09:31N 39°43' W 075°32'0 0.0
2017-Dec-01 09:01N 39°43' W 075°32'0 0.0
2017-Dec-01 08:31N 39°43' W 075°32'0 0.9
2017-Dec-01 08:00N 39°43' W 075°31'1 1.2
2017-Dec-01 07:31N 39°43' W 075°32'0 0.0
2017-Dec-01 07:01N 39°43' W 075°32'0 0.0
2017-Dec-01 06:31N 39°43' W 075°32'0 0.0
2017-Dec-01 06:00N 39°43' W 075°32'0 0.0
2017-Dec-01 05:30N 39°43' W 075°32'0 0.0
2017-Dec-01 05:01N 39°43' W 075°32'0 0.0
2017-Dec-01 04:30N 39°43' W 075°32'0 0.0
2017-Dec-01 04:01N 39°43' W 075°32'  

Dump ship's entire track history